EKSB

Sønderborg Airport

Sønderborg, Denmark
METAR EKSB 162220Z AUTO 24018G29KT 200V280 9999NDV -SHRA OVC008/// 06/04 Q0992
Observed Flight Rules
Jan-16 @ 22:20 UTC (14 minutes ago)
Wind Clouds Conditions
240° at 18 knots
 Gusting to 29 knots
  • Overcast at 800' AGL
  • Light Rain
Temperatures Readings
Current 6°C / 43°F
Dewpoint 4°C / 39°F
Humidity 87%
Altimeter 29.29" Hg
Pressure 991.92 hPa
Elevation 23
METAR EKSB 162220Z AUTO 24018G29KT 200V280 9999NDV -SHRA OVC008/// 06/04 Q0992
Observed Flight Rules
Jan-16 @ 22:20 UTC
(14 minutes ago)
Wind
240° at 18 knots
 Gusting to 29 knots
Clouds
  • Overcast at 800' AGL
Conditions
  • Light Rain
Temperature Dewpoint
6°C / 43°F 4°C / 39°F
Humidity Altimeter Pressure
87% 29.29" Hg 991.92 hPa